Time;durP1;ratioP1;P1;durP2;ratioP2;P2;SDS_P1;SDS_P2;PMS_P1;PMS_P2;Temp;Humidity;BMP_temperature;BMP_pressure;BME280_temperature;BME280_humidity;BME280_pressure;Samples;Min_cycle;Max_cycle;Signal;HPM_P1;HPM_P2
2024/01/28 00:00:21;;;;;;;5.2;3.3;;;;;;;2.09;92.11914;954.1593;;;;
2024/01/28 00:02:46;;;;;;;6.4;4.1;;;;;;;2.1;91.70898;954.2558;;;;
2024/01/28 00:05:11;;;;;;;7.5;5;;;;;;;2.15;91.04883;954.2014;;;;
2024/01/28 00:07:36;;;;;;;7.4;5.6;;;;;;;1.98;91.69238;954.2389;;;;
2024/01/28 00:10:01;;;;;;;4.4;4;;;;;;;1.97;91.77051;954.2068;;;;
2024/01/28 00:12:27;;;;;;;4.2;3.2;;;;;;;1.97;91.79297;954.192;;;;
2024/01/28 00:14:52;;;;;;;3.1;2.7;;;;;;;1.98;91.81543;954.187;;;;
2024/01/28 00:17:17;;;;;;;2.5;2.3;;;;;;;2.01;91.82324;954.1763;;;;
2024/01/28 00:19:42;;;;;;;2.6;2.3;;;;;;;2.05;91.22461;954.0522;;;;
2024/01/28 00:22:07;;;;;;;2.8;2.2;;;;;;;2.05;90.87012;954.1186;;;;
2024/01/28 00:24:32;;;;;;;2.6;2.3;;;;;;;2;91.39648;954.1218;;;;
2024/01/28 00:26:57;;;;;;;3.1;2.3;;;;;;;2.16;90.6582;954.0833;;;;
2024/01/28 00:29:28;;;;;;;3.2;2.2;;;;;;;1.98;91.2666;954.1378;;;;
2024/01/28 00:31:48;;;;;;;3.4;2.9;;;;;;;2;91.09375;954.0642;;;;
2024/01/28 00:34:12;;;;;;;3.8;2.9;;;;;;;2.11;90.74805;954.095;;;;
2024/01/28 00:36:38;;;;;;;4;3;;;;;;;1.96;91.06152;954.0374;;;;
2024/01/28 00:39:03;;;;;;;3.9;2.9;;;;;;;1.88;91.82715;954.0901;;;;
2024/01/28 00:41:29;;;;;;;4.1;2.9;;;;;;;1.9;91.2627;954.0886;;;;
2024/01/28 00:43:54;;;;;;;2.7;2.2;;;;;;;1.95;90.81348;954.0059;;;;
2024/01/28 00:46:20;;;;;;;1.6;1.5;;;;;;;2.15;89.96191;953.9197;;;;
2024/01/28 00:48:43;;;;;;;3.7;2.1;;;;;;;2.17;89.76465;954.0336;;;;
2024/01/28 00:51:09;;;;;;;3.7;3.1;;;;;;;2.16;89.78516;954.0502;;;;
2024/01/28 00:53:34;;;;;;;3.3;2.9;;;;;;;2.06;90.34668;954.0281;;;;
2024/01/28 00:55:59;;;;;;;4.5;3.7;;;;;;;2.03;90.2373;954.0367;;;;
2024/01/28 00:58:24;;;;;;;5.7;4.2;;;;;;;2.01;90.05469;954.0427;;;;
2024/01/28 01:00:50;;;;;;;7.6;4.2;;;;;;;1.97;90.22656;953.9897;;;;
2024/01/28 01:03:14;;;;;;;7.4;5.4;;;;;;;1.83;90.70996;953.8918;;;;
2024/01/28 01:05:41;;;;;;;7.4;5.2;;;;;;;1.74;90.9502;953.9448;;;;
2024/01/28 01:08:04;;;;;;;6.3;4.6;;;;;;;1.67;91.26758;953.8772;;;;
2024/01/28 01:10:29;;;;;;;8.3;5.3;;;;;;;1.6;91.42188;953.9063;;;;
2024/01/28 01:12:55;;;;;;;5.7;4.2;;;;;;;1.72;91.3584;953.9305;;;;
2024/01/28 01:15:20;;;;;;;5.6;4.4;;;;;;;1.57;92.0293;953.9667;;;;
2024/01/28 01:17:49;;;;;;;5.5;3.9;;;;;;;1.51;92.62109;953.9827;;;;
2024/01/28 01:20:10;;;;;;;5.2;3.7;;;;;;;1.49;92.69531;954.012;;;;
2024/01/28 01:22:35;;;;;;;5.5;3.3;;;;;;;1.48;92.82813;953.941;;;;
2024/01/28 01:25:01;;;;;;;4.4;3.4;;;;;;;1.56;92.50977;953.9258;;;;
2024/01/28 01:27:26;;;;;;;5.8;3.7;;;;;;;1.58;92.4248;953.9256;;;;
2024/01/28 01:29:50;;;;;;;4.1;3.3;;;;;;;1.75;91.62109;953.7975;;;;
2024/01/28 01:32:16;;;;;;;4;3.4;;;;;;;1.72;91.50391;953.7776;;;;
2024/01/28 01:34:41;;;;;;;3.2;2.9;;;;;;;1.65;91.92383;953.7022;;;;
2024/01/28 01:37:06;;;;;;;3.7;3.2;;;;;;;1.7;91.01855;953.7551;;;;
2024/01/28 01:39:31;;;;;;;4;3;;;;;;;1.66;91.20996;953.7647;;;;
2024/01/28 01:41:56;;;;;;;2.8;2.3;;;;;;;1.8;90.46777;953.848;;;;
2024/01/28 01:44:22;;;;;;;2.7;2.1;;;;;;;1.76;90.81738;953.7291;;;;
2024/01/28 01:46:47;;;;;;;3.1;2.4;;;;;;;1.76;90.85156;953.7455;;;;
2024/01/28 01:49:11;;;;;;;3.5;2.5;;;;;;;1.8;90.48047;953.7252;;;;
2024/01/28 01:51:36;;;;;;;4.1;2.8;;;;;;;1.74;90.58105;953.6841;;;;
2024/01/28 01:54:02;;;;;;;2;1.7;;;;;;;1.87;89.80273;953.5678;;;;
2024/01/28 01:56:27;;;;;;;2.6;2.4;;;;;;;1.85;90.31152;953.6325;;;;
2024/01/28 01:58:53;;;;;;;2.9;2.3;;;;;;;1.79;90.03125;953.652;;;;
2024/01/28 02:01:17;;;;;;;2.9;2.3;;;;;;;1.89;89.77051;953.5526;;;;
2024/01/28 02:03:42;;;;;;;2.8;2.6;;;;;;;1.87;89.40918;953.5952;;;;
2024/01/28 02:06:07;;;;;;;3.2;2.5;;;;;;;1.92;89.08496;953.6049;;;;
2024/01/28 02:08:32;;;;;;;3.3;2.8;;;;;;;1.71;89.86621;953.5928;;;;
2024/01/28 02:10:59;;;;;;;3.7;2.9;;;;;;;1.67;90.53027;953.5094;;;;
2024/01/28 02:13:22;;;;;;;4.2;3.3;;;;;;;1.59;91.01758;953.45;;;;
2024/01/28 02:15:48;;;;;;;3.9;2.9;;;;;;;1.69;90.68066;953.5676;;;;
2024/01/28 02:18:12;;;;;;;4.2;3.3;;;;;;;1.69;90.25586;953.5551;;;;
2024/01/28 02:20:38;;;;;;;4.1;3;;;;;;;1.47;90.62207;953.6286;;;;
2024/01/28 02:23:03;;;;;;;4.1;3.2;;;;;;;1.32;90.73633;953.5294;;;;
2024/01/28 02:25:28;;;;;;;4.7;4.3;;;;;;;1.35;90.87598;953.5016;;;;
2024/01/28 02:27:53;;;;;;;5.6;5.1;;;;;;;1.32;91.27051;953.4913;;;;
2024/01/28 02:30:18;;;;;;;4.5;3.8;;;;;;;1.35;91.5127;953.4761;;;;
2024/01/28 02:32:43;;;;;;;4.7;3.2;;;;;;;1.35;91.61328;953.4483;;;;
2024/01/28 02:35:08;;;;;;;6.3;5.4;;;;;;;1.47;91.37012;953.425;;;;
2024/01/28 02:37:34;;;;;;;7.6;4.6;;;;;;;1.41;91.41504;953.3506;;;;
2024/01/28 02:39:59;;;;;;;6.7;5.4;;;;;;;1.41;90.87793;953.3052;;;;
2024/01/28 02:42:24;;;;;;;4.3;3.1;;;;;;;1.45;90.47266;953.2997;;;;
2024/01/28 02:44:49;;;;;;;4.4;3.3;;;;;;;1.45;90.15918;953.2213;;;;
2024/01/28 02:47:14;;;;;;;4.3;3.2;;;;;;;1.36;90.19629;953.2424;;;;
2024/01/28 02:49:39;;;;;;;3.4;2.7;;;;;;;1.5;90.14844;953.1732;;;;
2024/01/28 02:52:05;;;;;;;3.9;3.3;;;;;;;1.34;90.59473;953.1541;;;;
2024/01/28 02:54:30;;;;;;;3.3;3;;;;;;;1.43;90.44434;953.0745;;;;
2024/01/28 02:56:55;;;;;;;2.5;2.3;;;;;;;1.61;89.68164;952.9995;;;;
2024/01/28 02:59:20;;;;;;;2.1;1.8;;;;;;;1.56;89.33496;953.0812;;;;
2024/01/28 03:01:45;;;;;;;2.5;2.1;;;;;;;1.51;89.42383;953.1443;;;;
2024/01/28 03:04:10;;;;;;;2.1;1.9;;;;;;;1.37;89.97461;953.0993;;;;
2024/01/28 03:06:36;;;;;;;3.6;2.3;;;;;;;1.17;90.9707;953.1147;;;;
2024/01/28 03:09:01;;;;;;;2.7;2.4;;;;;;;1.28;91.06152;953.0627;;;;
2024/01/28 03:11:25;;;;;;;3.1;2.8;;;;;;;1.38;90.7832;953.014;;;;
2024/01/28 03:13:50;;;;;;;3.3;2.8;;;;;;;1.38;90.5127;953.0167;;;;
2024/01/28 03:16:16;;;;;;;3.3;2.4;;;;;;;1.37;89.75293;953.03;;;;
2024/01/28 03:18:41;;;;;;;3.4;2.7;;;;;;;1.2;90.56543;953.0444;;;;
2024/01/28 03:21:06;;;;;;;3.5;2.9;;;;;;;1.25;89.94727;953.0737;;;;
2024/01/28 03:23:31;;;;;;;4.2;3;;;;;;;1.17;90.33398;953.0463;;;;
2024/01/28 03:25:56;;;;;;;4.1;3.2;;;;;;;1.11;90.63379;953.0645;;;;
2024/01/28 03:28:21;;;;;;;7.3;3.3;;;;;;;1.11;90.8125;953.0365;;;;
2024/01/28 03:30:46;;;;;;;3.9;2.4;;;;;;;1.06;91.40527;953.0086;;;;
2024/01/28 03:33:11;;;;;;;2.6;2.2;;;;;;;1.19;91.20996;953.0006;;;;
2024/01/28 03:35:37;;;;;;;2.8;2.3;;;;;;;1.25;90.94238;953.0455;;;;
2024/01/28 03:38:01;;;;;;;2.3;2;;;;;;;1.24;90.74121;953.1183;;;;
2024/01/28 03:40:27;;;;;;;2.1;1.8;;;;;;;1.37;90.04199;953.0594;;;;
2024/01/28 03:42:52;;;;;;;3;1.9;;;;;;;1.35;89.88086;953.0352;;;;
2024/01/28 03:45:17;;;;;;;2.9;2.1;;;;;;;1.29;89.72461;953.0417;;;;
2024/01/28 03:47:42;;;;;;;3.5;2;;;;;;;1.26;90.11914;952.9311;;;;
2024/01/28 03:50:07;;;;;;;3;1.9;;;;;;;1.31;89.29102;953.0026;;;;
2024/01/28 03:52:32;;;;;;;3.1;2.2;;;;;;;1.03;90.32813;953.0824;;;;
2024/01/28 03:54:57;;;;;;;2.1;1.9;;;;;;;1.04;90.51758;953.1314;;;;
2024/01/28 03:57:22;;;;;;;4.2;3;;;;;;;0.94;90.68848;953.0846;;;;
2024/01/28 03:59:47;;;;;;;4.3;2.9;;;;;;;0.98;90.56152;953.0347;;;;
2024/01/28 04:02:28;;;;;;;3.6;2.8;;;;;;;0.92;91.2959;953.0854;;;;
2024/01/28 04:04:53;;;;;;;3.7;2.8;;;;;;;1.07;90.93848;953.045;;;;
2024/01/28 04:07:18;;;;;;;5.9;3.6;;;;;;;1.13;89.90234;952.9937;;;;
2024/01/28 04:09:43;;;;;;;4.4;2.5;;;;;;;1.06;89.76367;953.0212;;;;
2024/01/28 04:12:08;;;;;;;3.5;2.6;;;;;;;1.03;90.01563;952.9827;;;;
2024/01/28 04:14:34;;;;;;;2.6;2.2;;;;;;;0.91;89.75391;952.9601;;;;
2024/01/28 04:16:59;;;;;;;3;2.4;;;;;;;0.94;89.77246;952.9582;;;;
2024/01/28 04:19:24;;;;;;;3.2;2.2;;;;;;;0.93;89.96973;952.9299;;;;
2024/01/28 04:21:49;;;;;;;3.7;2.4;;;;;;;0.96;90.05566;952.8811;;;;
2024/01/28 04:24:15;;;;;;;2.2;2;;;;;;;0.94;90.24121;952.8855;;;;
2024/01/28 04:26:39;;;;;;;2.7;1.8;;;;;;;0.95;90.20996;952.8929;;;;
2024/01/28 04:29:04;;;;;;;2.3;2;;;;;;;1;90.08594;952.9135;;;;
2024/01/28 04:31:29;;;;;;;2.2;1.8;;;;;;;1.1;89.36035;952.8369;;;;
2024/01/28 04:33:55;;;;;;;2.2;2;;;;;;;1.01;89.49805;952.9205;;;;
2024/01/28 04:36:21;;;;;;;3.1;1.7;;;;;;;1.2;88.57715;952.8175;;;;
2024/01/28 04:38:45;;;;;;;2.4;2.1;;;;;;;0.99;89.13281;952.8923;;;;
2024/01/28 04:41:10;;;;;;;4.3;3.9;;;;;;;1.04;89.33398;952.8757;;;;
2024/01/28 04:43:35;;;;;;;4;3.7;;;;;;;0.94;89.32422;952.8528;;;;
2024/01/28 04:46:00;;;;;;;4;2.9;;;;;;;0.9;90.07715;952.856;;;;
2024/01/28 04:48:25;;;;;;;3.1;2.3;;;;;;;0.78;90.06152;952.8488;;;;
2024/01/28 04:50:50;;;;;;;3.9;3.6;;;;;;;0.71;90.54883;952.8683;;;;
2024/01/28 04:53:15;;;;;;;2.6;2.1;;;;;;;0.95;89.78613;952.8459;;;;
2024/01/28 04:55:40;;;;;;;5.8;3.7;;;;;;;1;89.8291;952.8391;;;;
2024/01/28 04:58:06;;;;;;;7.8;4.6;;;;;;;1.08;89.0752;952.837;;;;
2024/01/28 05:00:31;;;;;;;7.1;4.6;;;;;;;1.02;88.7627;952.7994;;;;
2024/01/28 05:02:56;;;;;;;3.4;2.5;;;;;;;1.01;88.50391;952.8295;;;;
2024/01/28 05:05:21;;;;;;;3.5;2.5;;;;;;;0.97;88.39355;952.7147;;;;
2024/01/28 05:07:46;;;;;;;3.1;2.3;;;;;;;0.98;88.2168;952.8555;;;;
2024/01/28 05:10:12;;;;;;;2.4;2.2;;;;;;;0.95;88.41211;952.8036;;;;
2024/01/28 05:12:36;;;;;;;2.7;2.4;;;;;;;0.81;88.78418;952.9171;;;;
2024/01/28 05:15:03;;;;;;;2.6;2.4;;;;;;;0.65;89.59766;952.9754;;;;
2024/01/28 05:17:26;;;;;;;2.8;2.2;;;;;;;0.68;89.78418;952.9283;;;;
2024/01/28 05:19:52;;;;;;;3.4;2.1;;;;;;;0.72;89.3457;952.9983;;;;
2024/01/28 05:22:19;;;;;;;2.6;2.2;;;;;;;0.72;89.22461;952.9453;;;;
2024/01/28 05:24:44;;;;;;;3.4;2.6;;;;;;;0.65;89.66504;953.008;;;;
2024/01/28 05:27:08;;;;;;;3.1;2.8;;;;;;;0.67;89.58105;953.1138;;;;
2024/01/28 05:29:32;;;;;;;5.8;3.9;;;;;;;0.58;90.05078;953.0444;;;;
2024/01/28 05:31:58;;;;;;;5.8;4.4;;;;;;;0.51;90.37012;953.0833;;;;
2024/01/28 05:34:23;;;;;;;8;5.2;;;;;;;0.5;90.53711;953.1089;;;;
2024/01/28 05:36:48;;;;;;;4.2;3.3;;;;;;;0.57;90.07324;952.9791;;;;
2024/01/28 05:39:13;;;;;;;3.5;2.8;;;;;;;0.58;90.44336;953.0348;;;;
2024/01/28 05:41:38;;;;;;;3.3;2.6;;;;;;;0.72;89.89258;952.9094;;;;
2024/01/28 05:44:03;;;;;;;2.8;2.1;;;;;;;0.79;89.27148;952.9931;;;;
2024/01/28 05:46:28;;;;;;;3;1.6;;;;;;;0.8;87.74414;953.0939;;;;
2024/01/28 05:48:54;;;;;;;2.2;2;;;;;;;0.81;88.25781;952.9653;;;;
2024/01/28 05:51:18;;;;;;;3.4;3.1;;;;;;;0.76;88.39355;953.0753;;;;
2024/01/28 05:53:43;;;;;;;4.6;2.8;;;;;;;0.78;88.20898;953.0825;;;;
2024/01/28 05:56:08;;;;;;;3.3;2.5;;;;;;;0.62;88.53418;953.1786;;;;
2024/01/28 05:58:34;;;;;;;4.4;2.7;;;;;;;0.53;88.91504;953.1806;;;;
2024/01/28 06:01:03;;;;;;;3.4;2.4;;;;;;;0.56;89.05664;953.1609;;;;
2024/01/28 06:03:24;;;;;;;2.1;1.6;;;;;;;0.55;88.33887;953.1498;;;;
2024/01/28 06:05:49;;;;;;;3;2;;;;;;;0.66;88.52832;953.153;;;;
2024/01/28 06:08:16;;;;;;;2.5;1.8;;;;;;;0.79;88.06641;953.1104;;;;
2024/01/28 06:10:39;;;;;;;2.1;1.7;;;;;;;0.9;87.47461;953.0918;;;;
2024/01/28 06:13:04;;;;;;;1.5;1.4;;;;;;;0.97;86.31738;953.0836;;;;
2024/01/28 06:15:29;;;;;;;1.1;1;;;;;;;0.96;85.35547;953.1071;;;;
2024/01/28 06:17:55;;;;;;;2.1;1.2;;;;;;;1.2;84.73438;952.9963;;;;
2024/01/28 06:20:20;;;;;;;2.5;1.6;;;;;;;1.04;85.28027;953.1252;;;;
2024/01/28 06:22:45;;;;;;;2.6;1.8;;;;;;;1.02;85.62305;953.1398;;;;
2024/01/28 06:25:10;;;;;;;2.3;1.9;;;;;;;0.99;85.88379;953.0742;;;;
2024/01/28 06:27:35;;;;;;;3.4;2.7;;;;;;;0.92;86.36426;953.1319;;;;
2024/01/28 06:30:00;;;;;;;4.7;2.9;;;;;;;0.81;86.77539;953.1811;;;;
2024/01/28 06:32:25;;;;;;;5.4;3.1;;;;;;;0.76;87.09863;953.1359;;;;
2024/01/28 06:34:51;;;;;;;4.9;3.5;;;;;;;0.74;87.15039;953.2128;;;;
2024/01/28 06:37:16;;;;;;;5.4;3.7;;;;;;;0.69;87.65332;953.1724;;;;
2024/01/28 06:39:41;;;;;;;6.6;4.9;;;;;;;0.72;87.75;953.1306;;;;
2024/01/28 06:42:06;;;;;;;6.4;4.3;;;;;;;0.69;87.9668;953.1686;;;;
2024/01/28 06:44:31;;;;;;;7.7;4.8;;;;;;;0.68;87.89648;953.1459;;;;
2024/01/28 06:46:56;;;;;;;8.5;5.2;;;;;;;0.57;88.09863;953.2205;;;;
2024/01/28 06:49:22;;;;;;;14.3;8.1;;;;;;;0.63;87.53027;953.1947;;;;
2024/01/28 06:51:46;;;;;;;13.9;9.6;;;;;;;0.51;88.05273;953.2755;;;;
2024/01/28 06:54:12;;;;;;;11.8;6.9;;;;;;;0.53;88.35547;953.1788;;;;
2024/01/28 06:56:37;;;;;;;10.8;5.6;;;;;;;0.48;88.33691;953.2335;;;;
2024/01/28 06:59:02;;;;;;;8.6;5.5;;;;;;;0.49;88.80469;953.2338;;;;
2024/01/28 07:01:27;;;;;;;7.5;5.2;;;;;;;0.53;88.53418;953.2477;;;;
2024/01/28 07:03:52;;;;;;;9.1;5.4;;;;;;;0.4;88.88867;953.2469;;;;
2024/01/28 07:06:17;;;;;;;10;6.2;;;;;;;0.39;89.20801;953.2241;;;;
2024/01/28 07:08:42;;;;;;;10.7;6.2;;;;;;;0.41;88.67871;953.2325;;;;
2024/01/28 07:11:07;;;;;;;10.7;6.4;;;;;;;0.46;89.04492;953.1417;;;;
2024/01/28 07:13:33;;;;;;;9.6;7;;;;;;;0.46;89.05762;953.1656;;;;
2024/01/28 07:15:58;;;;;;;13.2;8.8;;;;;;;0.55;88.80859;953.1972;;;;
2024/01/28 07:18:23;;;;;;;20;12.8;;;;;;;0.48;88.57129;953.2313;;;;
2024/01/28 07:20:48;;;;;;;15.7;10.7;;;;;;;0.55;88.36133;953.3081;;;;
2024/01/28 07:23:13;;;;;;;14.2;9.3;;;;;;;0.49;88.58398;953.2505;;;;
2024/01/28 07:25:38;;;;;;;11.4;6.8;;;;;;;0.47;88.3125;953.2808;;;;
2024/01/28 07:28:03;;;;;;;10.5;7.7;;;;;;;0.44;88.60742;953.2608;;;;
2024/01/28 07:30:28;;;;;;;10.7;6;;;;;;;0.58;89.03809;953.2422;;;;
2024/01/28 07:32:54;;;;;;;7.8;5.2;;;;;;;1.06;89.08301;953.2081;;;;
2024/01/28 07:35:18;;;;;;;6.7;4.2;;;;;;;1.77;85.75391;953.1654;;;;
2024/01/28 07:37:44;;;;;;;5.8;3.7;;;;;;;2.57;81.87988;953.1166;;;;
2024/01/28 07:40:10;;;;;;;4.5;3.7;;;;;;;3.17;78.875;953.0508;;;;
2024/01/28 07:42:34;;;;;;;4.6;3.7;;;;;;;3.67;75.2832;953.0655;;;;
2024/01/28 07:44:59;;;;;;;5.6;4.3;;;;;;;4.05;74.38477;953.0378;;;;
2024/01/28 07:47:24;;;;;;;5.1;4.1;;;;;;;4.27;73.96191;953.0689;;;;
2024/01/28 07:49:49;;;;;;;5.9;4.6;;;;;;;4.62;72.20801;953.0053;;;;
2024/01/28 07:52:14;;;;;;;5.2;3.8;;;;;;;5.19;68.93262;952.979;;;;
2024/01/28 07:54:39;;;;;;;3.5;2.5;;;;;;;5.56;67.23145;952.9596;;;;
2024/01/28 07:57:04;;;;;;;2.3;1.9;;;;;;;5.83;64.6416;952.8546;;;;
2024/01/28 07:59:30;;;;;;;3;2.5;;;;;;;6.12;64.92383;952.9607;;;;
2024/01/28 08:01:55;;;;;;;4.3;2.8;;;;;;;6.2;64.95898;952.915;;;;
2024/01/28 08:04:20;;;;;;;4.3;3.3;;;;;;;6.27;64.61914;952.9501;;;;
2024/01/28 08:06:45;;;;;;;3.3;3;;;;;;;6.63;62.99902;952.8853;;;;
2024/01/28 08:09:10;;;;;;;3.8;3.2;;;;;;;6.86;62.3877;952.9028;;;;
2024/01/28 08:11:35;;;;;;;4.4;3.3;;;;;;;6.97;61.96191;952.8389;;;;
2024/01/28 08:14:00;;;;;;;4.9;3.5;;;;;;;6.87;62.72852;952.9358;;;;
2024/01/28 08:16:25;;;;;;;3.8;2.8;;;;;;;7.38;60.16113;952.8479;;;;
2024/01/28 08:18:51;;;;;;;6.3;4.1;;;;;;;7.4;60.7207;952.8775;;;;
2024/01/28 08:21:16;;;;;;;2.7;2.1;;;;;;;7.37;59.84375;952.8404;;;;
2024/01/28 08:23:41;;;;;;;4.8;3.4;;;;;;;7.2;59.94336;952.9217;;;;
2024/01/28 08:26:06;;;;;;;4.3;3.2;;;;;;;7.18;61.67383;952.8909;;;;
2024/01/28 08:28:31;;;;;;;3.8;2.5;;;;;;;7.43;60.04395;952.9028;;;;
2024/01/28 08:30:56;;;;;;;4.8;2.8;;;;;;;7.84;59.1709;952.6858;;;;
2024/01/28 08:33:21;;;;;;;2.6;2.1;;;;;;;7.95;58.00684;952.7342;;;;
2024/01/28 08:35:46;;;;;;;2.4;2.2;;;;;;;8.04;58.6543;952.7502;;;;
2024/01/28 08:38:12;;;;;;;3.6;2.6;;;;;;;8.32;56.86328;952.7794;;;;
2024/01/28 08:40:48;;;;;;;5.6;3.4;;;;;;;8.45;56.69824;952.7466;;;;
2024/01/28 08:43:05;;;;;;;4.5;3.5;;;;;;;8.33;57.85352;952.7166;;;;
2024/01/28 08:45:30;;;;;;;7.4;4.4;;;;;;;8.57;57.52148;952.7012;;;;
2024/01/28 08:47:55;;;;;;;5.1;4;;;;;;;8.92;55.79395;952.6927;;;;
2024/01/28 08:50:21;;;;;;;3.3;2.5;;;;;;;9.02;55.73926;952.6731;;;;
2024/01/28 08:52:46;;;;;;;3.2;2.6;;;;;;;9.49;54.64844;952.6833;;;;
2024/01/28 08:55:11;;;;;;;3.3;2.4;;;;;;;9.38;55.26074;952.7051;;;;
2024/01/28 08:57:36;;;;;;;4.2;1.8;;;;;;;9.71;54.1416;952.6646;;;;
2024/01/28 09:00:01;;;;;;;1.6;1.4;;;;;;;9.77;52.80371;952.6429;;;;
2024/01/28 09:02:26;;;;;;;1.4;1.3;;;;;;;10.12;52.04785;952.6451;;;;
2024/01/28 09:04:51;;;;;;;4.6;2.2;;;;;;;10.24;52.54297;952.666;;;;
2024/01/28 09:07:16;;;;;;;5.3;3.2;;;;;;;10.34;50.92188;952.6692;;;;
2024/01/28 09:09:42;;;;;;;1.8;1.6;;;;;;;10.53;50.7627;952.6128;;;;
2024/01/28 09:12:07;;;;;;;1.7;1.3;;;;;;;10.93;48.88867;952.6677;;;;
2024/01/28 09:14:32;;;;;;;0.8;0.8;;;;;;;10.79;47.73047;952.5999;;;;
2024/01/28 09:16:57;;;;;;;0.6;0.6;;;;;;;11.25;48.26172;952.5829;;;;
2024/01/28 09:19:22;;;;;;;0.5;0.5;;;;;;;11.48;46.98242;952.5541;;;;
2024/01/28 09:21:48;;;;;;;1.9;1.6;;;;;;;11.43;46.74805;952.5552;;;;
2024/01/28 09:24:12;;;;;;;5.4;3.5;;;;;;;11.23;47.42578;952.5985;;;;
2024/01/28 09:26:37;;;;;;;10.9;5.7;;;;;;;11.17;48.97266;952.4958;;;;
2024/01/28 09:29:03;;;;;;;6.9;4.2;;;;;;;11.52;48.77344;952.5067;;;;
2024/01/28 09:31:29;;;;;;;4.3;2.3;;;;;;;11.46;49.20117;952.5242;;;;
2024/01/28 09:33:53;;;;;;;3.3;2.1;;;;;;;11.6;49.09082;952.4221;;;;
2024/01/28 09:36:18;;;;;;;2.2;1.7;;;;;;;11.82;47.98145;952.4394;;;;
2024/01/28 09:38:43;;;;;;;3.1;2.2;;;;;;;12.04;48.09766;952.4153;;;;
2024/01/28 09:41:08;;;;;;;3.8;2;;;;;;;12.06;47.36621;952.4037;;;;
2024/01/28 09:43:38;;;;;;;3.1;1.9;;;;;;;11.99;46.90137;952.413;;;;
2024/01/28 09:45:58;;;;;;;4.5;2.4;;;;;;;12.27;47.35449;952.4255;;;;
2024/01/28 09:48:24;;;;;;;3.8;2.6;;;;;;;12.71;47.19531;952.3921;;;;
2024/01/28 09:50:49;;;;;;;4.4;2;;;;;;;12.78;45.94141;952.3962;;;;
2024/01/28 09:53:14;;;;;;;4.2;2.1;;;;;;;13;45.31152;952.3154;;;;
2024/01/28 09:55:39;;;;;;;4.6;2.1;;;;;;;13.21;45.87207;952.3326;;;;
2024/01/28 09:58:04;;;;;;;7.3;2;;;;;;;13.19;45.50293;952.2778;;;;
2024/01/28 10:00:30;;;;;;;5.3;2.8;;;;;;;13.39;45.55859;952.2849;;;;
2024/01/28 10:02:55;;;;;;;6.3;3.2;;;;;;;13.38;44.00586;952.2374;;;;
2024/01/28 10:05:20;;;;;;;3.5;2.2;;;;;;;13.44;44.65527;952.1629;;;;
2024/01/28 10:07:47;;;;;;;5.1;1.5;;;;;;;13.82;44.25684;952.2015;;;;
2024/01/28 10:10:12;;;;;;;3.6;1.3;;;;;;;13.77;42.35352;952.2034;;;;
2024/01/28 10:12:35;;;;;;;3.2;1;;;;;;;14.14;41.52734;952.1542;;;;
2024/01/28 10:15:00;;;;;;;5.1;1.1;;;;;;;14.12;41.06445;952.1345;;;;
2024/01/28 10:17:25;;;;;;;3.3;1.6;;;;;;;13.95;41.75098;952.0839;;;;
2024/01/28 10:19:52;;;;;;;3.9;2.2;;;;;;;13.81;40.98828;951.9607;;;;
2024/01/28 10:22:15;;;;;;;2.6;1.5;;;;;;;13.97;42.28125;952.0026;;;;
2024/01/28 10:24:41;;;;;;;2.6;1.3;;;;;;;14.14;41.79102;951.9866;;;;
2024/01/28 10:27:06;;;;;;;4.3;1.6;;;;;;;14.26;39.61426;951.9522;;;;
2024/01/28 10:29:31;;;;;;;3.9;1.3;;;;;;;13.99;40.33887;951.9597;;;;
2024/01/28 10:31:56;;;;;;;2.3;1.6;;;;;;;14.34;39.09277;951.9031;;;;
2024/01/28 10:34:21;;;;;;;1.7;0.8;;;;;;;14.39;37.0918;951.8405;;;;
2024/01/28 10:36:46;;;;;;;2.2;0.7;;;;;;;14.55;37.83203;951.8237;;;;
2024/01/28 10:39:12;;;;;;;6.1;0.9;;;;;;;14.45;36.7168;951.7285;;;;
2024/01/28 10:41:37;;;;;;;0.8;0.8;;;;;;;14.67;37.01172;951.8074;;;;
2024/01/28 10:44:02;;;;;;;4.3;1.1;;;;;;;14.68;38.08594;951.6802;;;;
2024/01/28 10:46:27;;;;;;;5.5;3.2;;;;;;;14.9;38.7959;951.7061;;;;
2024/01/28 10:48:52;;;;;;;3.3;1.8;;;;;;;14.87;37.67383;951.6544;;;;
2024/01/28 10:51:17;;;;;;;6;2.3;;;;;;;15.12;36.16211;951.6397;;;;
2024/01/28 10:53:42;;;;;;;1.1;1;;;;;;;15.08;34.98145;951.5276;;;;
2024/01/28 10:56:07;;;;;;;1.2;0.8;;;;;;;14.76;33.71094;951.4944;;;;
2024/01/28 10:58:33;;;;;;;2.1;0.8;;;;;;;14.89;36.09668;951.5625;;;;
2024/01/28 11:00:58;;;;;;;1;0.9;;;;;;;14.87;34.50391;951.47;;;;
2024/01/28 11:03:23;;;;;;;2.4;0.5;;;;;;;14.77;34.63379;951.4914;;;;
2024/01/28 11:05:48;;;;;;;0.4;0.4;;;;;;;14.69;35.3418;951.4093;;;;
2024/01/28 11:08:13;;;;;;;0.8;0.7;;;;;;;14.6;35.12793;951.4102;;;;
2024/01/28 11:10:38;;;;;;;3.6;1.1;;;;;;;14.44;37.31445;951.3787;;;;
2024/01/28 11:13:04;;;;;;;2.9;1;;;;;;;14.49;38.4375;951.3283;;;;
2024/01/28 11:15:29;;;;;;;1.4;0.9;;;;;;;14.6;37.12109;951.313;;;;
2024/01/28 11:17:54;;;;;;;1.5;1.1;;;;;;;14.63;38.58789;951.3106;;;;
2024/01/28 11:20:22;;;;;;;1.7;0.7;;;;;;;14.56;35.70117;951.2403;;;;
2024/01/28 11:22:44;;;;;;;3.2;1.5;;;;;;;14.57;35.32031;951.1939;;;;
2024/01/28 11:25:09;;;;;;;2.5;1.4;;;;;;;14.55;36.0791;951.1711;;;;
2024/01/28 11:27:34;;;;;;;2.7;0.9;;;;;;;14.29;37.19922;951.1819;;;;
2024/01/28 11:30:00;;;;;;;1;0.5;;;;;;;14.22;39.95703;951.1544;;;;
2024/01/28 11:32:25;;;;;;;0.5;0.5;;;;;;;14.1;39.33496;951.1616;;;;
2024/01/28 11:34:50;;;;;;;2;0.8;;;;;;;13.99;37.64551;951.2156;;;;
2024/01/28 11:37:18;;;;;;;1.7;1;;;;;;;13.87;40.70605;951.171;;;;
2024/01/28 11:39:41;;;;;;;3.4;1.3;;;;;;;13.76;39.21191;951.1039;;;;
2024/01/28 11:42:05;;;;;;;1.5;0.8;;;;;;;13.7;36.38965;951.051;;;;
2024/01/28 11:44:31;;;;;;;0.8;0.8;;;;;;;13.55;37.41113;951.0542;;;;
2024/01/28 11:46:56;;;;;;;1.4;0.8;;;;;;;13.53;36.9043;950.9987;;;;
2024/01/28 11:49:21;;;;;;;1.6;1;;;;;;;13.43;36.38965;950.9633;;;;
2024/01/28 11:51:46;;;;;;;2.2;1;;;;;;;13.27;38.15723;950.9303;;;;
2024/01/28 11:54:11;;;;;;;4.2;1.4;;;;;;;13.25;38.24805;950.8865;;;;
2024/01/28 11:56:36;;;;;;;5.9;1.3;;;;;;;13.15;37.84863;950.7873;;;;
2024/01/28 11:59:01;;;;;;;2.3;1.2;;;;;;;13.05;37.42676;950.8206;;;;
2024/01/28 12:01:26;;;;;;;2.2;1.1;;;;;;;12.92;37.65625;950.8312;;;;
2024/01/28 12:03:54;;;;;;;3.9;1;;;;;;;12.85;39.24609;950.7969;;;;
2024/01/28 12:06:17;;;;;;;1.6;0.9;;;;;;;12.55;40.21582;950.7189;;;;
2024/01/28 12:08:43;;;;;;;1.4;0.8;;;;;;;12.41;40.52344;950.705;;;;
2024/01/28 12:11:07;;;;;;;0.8;0.8;;;;;;;12.24;40.00391;950.6525;;;;
2024/01/28 12:13:32;;;;;;;1;0.8;;;;;;;12.05;42.23242;950.5991;;;;
2024/01/28 12:15:57;;;;;;;3.3;1.1;;;;;;;12.12;40.62402;950.5209;;;;
2024/01/28 12:18:23;;;;;;;2.3;1;;;;;;;12.18;39.9873;950.5094;;;;
2024/01/28 12:20:47;;;;;;;2.4;1;;;;;;;12.07;39.06055;950.4495;;;;
2024/01/28 12:23:12;;;;;;;2.4;1.1;;;;;;;12.05;41.01758;950.4147;;;;
2024/01/28 12:25:37;;;;;;;1.6;1.1;;;;;;;11.97;41.70898;950.3925;;;;
2024/01/28 12:28:03;;;;;;;2.4;1;;;;;;;11.79;42.33203;950.34;;;;
2024/01/28 12:30:28;;;;;;;1.8;0.8;;;;;;;11.73;40.75879;950.3608;;;;
2024/01/28 12:32:53;;;;;;;1.1;0.6;;;;;;;11.8;38.16699;950.2932;;;;
2024/01/28 12:35:18;;;;;;;1.5;0.4;;;;;;;11.72;39.7959;950.2759;;;;
2024/01/28 12:37:43;;;;;;;0.7;0.5;;;;;;;11.61;39.3623;950.253;;;;
2024/01/28 12:40:08;;;;;;;0.4;0.3;;;;;;;11.71;36.88672;950.1998;;;;
2024/01/28 12:42:34;;;;;;;0.8;0.4;;;;;;;11.68;38.55566;950.2086;;;;
2024/01/28 12:44:58;;;;;;;1;0.6;;;;;;;11.87;37.7832;950.1437;;;;
2024/01/28 12:47:23;;;;;;;0.9;0.5;;;;;;;11.95;35.625;950.1231;;;;
2024/01/28 12:49:49;;;;;;;2.6;0.6;;;;;;;12.05;35.72461;950.1114;;;;
2024/01/28 12:52:14;;;;;;;0.5;0.5;;;;;;;12.02;34.29004;950.0485;;;;
2024/01/28 12:54:39;;;;;;;0.7;0.7;;;;;;;11.82;35.53418;950.0475;;;;
2024/01/28 12:57:05;;;;;;;0.7;0.7;;;;;;;11.74;34.89746;950.0266;;;;
2024/01/28 12:59:29;;;;;;;2.3;1.2;;;;;;;11.78;36.79004;950.0391;;;;
2024/01/28 13:01:54;;;;;;;4.7;1.7;;;;;;;11.89;39.18164;949.9741;;;;
2024/01/28 13:04:19;;;;;;;5.9;1.6;;;;;;;11.88;39.68457;949.9547;;;;
2024/01/28 13:06:45;;;;;;;3.8;1.4;;;;;;;11.81;39.36914;949.9774;;;;
2024/01/28 13:09:13;;;;;;;2.2;1;;;;;;;11.78;38.87402;949.9289;;;;
2024/01/28 13:11:35;;;;;;;2.2;0.9;;;;;;;11.78;37.6377;949.8678;;;;
2024/01/28 13:14:00;;;;;;;3.9;1.1;;;;;;;11.87;37.58789;949.8795;;;;
2024/01/28 13:16:25;;;;;;;2.9;1.3;;;;;;;11.79;39.18457;949.8861;;;;
2024/01/28 13:18:50;;;;;;;5.2;1.6;;;;;;;11.8;35.23535;949.8217;;;;
2024/01/28 13:21:16;;;;;;;4.1;1.7;;;;;;;12;35.82422;949.8017;;;;
2024/01/28 13:23:41;;;;;;;1.9;1.1;;;;;;;11.78;36.45801;949.8159;;;;
2024/01/28 13:26:06;;;;;;;1.4;1;;;;;;;11.68;36.42676;949.816;;;;
2024/01/28 13:28:31;;;;;;;2.1;0.9;;;;;;;11.63;35.64355;949.7974;;;;
2024/01/28 13:30:56;;;;;;;3;1;;;;;;;11.63;35.96387;949.7414;;;;
2024/01/28 13:33:21;;;;;;;1.5;1;;;;;;;11.89;34.81738;949.7681;;;;
2024/01/28 13:35:46;;;;;;;5.8;2.3;;;;;;;12.02;35.8252;949.7036;;;;
2024/01/28 13:38:11;;;;;;;2.3;1;;;;;;;11.96;35.20117;949.7354;;;;
2024/01/28 13:40:36;;;;;;;0.3;0.3;;;;;;;11.94;32.77148;949.7405;;;;
2024/01/28 13:43:01;;;;;;;1.5;0.4;;;;;;;12.06;32.54004;949.6916;;;;
2024/01/28 13:45:26;;;;;;;0.2;0.2;;;;;;;12.05;34.0293;949.7033;;;;
2024/01/28 13:47:51;;;;;;;0.7;0.5;;;;;;;11.96;34.15918;949.6875;;;;
2024/01/28 13:50:17;;;;;;;1.1;0.7;;;;;;;12.12;33.51855;949.6721;;;;
2024/01/28 13:52:42;;;;;;;0.9;0.6;;;;;;;12.01;34.10645;949.6671;;;;
2024/01/28 13:55:07;;;;;;;1.2;0.6;;;;;;;12.05;34.72754;949.5669;;;;
2024/01/28 13:57:32;;;;;;;0.3;0.3;;;;;;;11.99;32.81055;949.6155;;;;
2024/01/28 13:59:57;;;;;;;0.6;0.6;;;;;;;11.89;34.65723;949.642;;;;
2024/01/28 14:02:22;;;;;;;4;1.5;;;;;;;11.9;39.21777;949.659;;;;
2024/01/28 14:04:47;;;;;;;5;1.9;;;;;;;11.88;42.68555;949.6259;;;;
2024/01/28 14:07:12;;;;;;;4.8;1.6;;;;;;;11.87;43.0625;949.6591;;;;
2024/01/28 14:09:38;;;;;;;4.5;1.8;;;;;;;11.68;44.41699;949.6286;;;;
2024/01/28 14:12:03;;;;;;;6.3;2;;;;;;;11.59;45.70215;949.6558;;;;
2024/01/28 14:14:28;;;;;;;7.8;2.4;;;;;;;11.44;44.33496;949.5787;;;;
2024/01/28 14:16:53;;;;;;;4.6;2.1;;;;;;;11.43;43.45313;949.5817;;;;
2024/01/28 14:19:18;;;;;;;6.4;2;;;;;;;11.39;41.97266;949.5612;;;;